Latest Weather Observations for Laverton

IDW60801

Issued at 5:32 pm WST Wednesday 27 May 2015 (issued every 30 minutes, with the page automatically refreshed every 10 minutes)

About weather observations | Map of weather stations | Latest weather observations for WA | Other Formats
Station Details ID: 012305 Name: LAVERTON AERO Lat: -28.61 Lon: 122.42 Height: 464.3 m
Data from the previous 72 hours. | See also: Recent months at Laverton
Date/Time
WST
Temp
°C
App
Temp
°C
Dew
Point
Rel
Hum
%
Delta-T
°C
Wind Press
QNH
hPa
Press
MSL
hPa
Rain
since 9 am
mm
Dir
 
Spd
km/h
Gust
km/h
Spd
kts
Gust
kts
27/05:30pm 16.9 16.4 12.8 77 2.3 NNW 7 9 4 5 1019.6 1018.5 0.0
27/05:00pm 17.7 16.4 12.4 71 3.0 NNW 11 13 6 7 1019.7 1018.6 0.0
27/04:30pm 18.3 16.3 12.7 70 3.2 N 15 20 8 11 1019.6 1018.5 0.0
27/04:00pm 18.8 17.6 11.6 63 4.0 N 9 11 5 6 1019.4 1018.3 0.0
27/03:30pm 19.2 18.9 11.3 60 4.4 NNE 4 9 2 5 1019.5 1018.4 0.0
27/03:00pm 19.5 19.2 11.3 59 4.6 NE 4 9 2 5 1019.4 1018.3 0.0
27/02:30pm 19.4 18.6 11.2 59 4.6 E 6 11 3 6 1019.6 1018.5 0.0
27/02:00pm 19.3 18.1 10.3 56 4.9 WSW 7 9 4 5 1019.6 1018.5 0.0
27/01:30pm 19.2 17.7 10.5 57 4.8 SSE 9 11 5 6 1019.5 1018.4 0.0
27/01:00pm 19.0 17.5 10.6 58 4.6 SSE 9 19 5 10 1019.8 1018.8 0.0
27/12:30pm 18.4 16.3 11.0 62 4.1 SE 13 17 7 9 1020.3 1019.3 0.0
27/12:00pm 18.4 16.5 11.7 65 3.8 SE 13 20 7 11 1020.9 1019.9 0.0
27/11:30am 17.7 15.3 12.6 72 2.9 SSE 17 20 9 11 1021.5 1020.4 0.0
27/11:00am 17.0 16.7 14.3 84 1.6 SE 9 13 5 7 1022.1 1021.1 0.0
27/10:30am 14.8 14.6 14.6 99 0.1 SSE 9 11 5 6 1022.5 1021.5 0.0
27/10:00am 13.9 13.4 13.7 99 0.1 SE 9 15 5 8 1022.7 1021.7 0.0
27/09:30am 13.2 12.1 13.0 99 0.1 SE 11 15 6 8 1022.7 1021.7 0.0
27/09:00am 12.5 11.1 12.3 99 0.1 SE 11 17 6 9 1022.7 1021.7 0.4
27/08:30am 12.2 11.1 12.0 99 0.1 SE 9 13 5 7 1022.8 1021.8 0.4
27/08:00am 11.8 11.0 11.6 99 0.1 SE 7 11 4 6 1022.7 1021.7 0.4
27/07:30am 11.7 10.5 11.5 99 0.1 SSE 9 13 5 7 1022.4 1021.4 0.4
27/07:00am 11.7 10.1 11.5 99 0.1 S 11 15 6 8 1022.1 1021.1 0.4
27/06:30am 11.1 11.4 10.9 99 0.1 CALM 0 0 0 0 1022.1 1021.1 0.4
27/06:00am 11.3 10.9 11.1 99 0.1 SW 4 7 2 4 1021.7 1020.7 0.2
27/05:30am 11.6 12.0 11.4 99 0.1 CALM 0 0 0 0 1021.6 1020.5 0.2
27/05:00am 11.9 11.3 11.7 99 0.1 N 6 9 3 5 1021.6 1020.5 0.2
27/04:30am 11.9 12.4 11.7 99 0.1 CALM 0 0 0 0 1021.5 1020.4 0.2
27/04:00am 11.8 11.5 11.6 99 0.1 NNW 4 9 2 5 1021.6 1020.5 0.2
27/03:30am 10.9 11.1 10.7 99 0.1 CALM 0 0 0 0 1021.5 1020.4 0.2
27/03:00am 10.2 10.3 10.0 99 0.1 CALM 0 0 0 0 1021.5 1020.4 0.2
27/02:30am 10.2 9.5 10.0 99 0.1 N 4 9 2 5 1021.6 1020.5 0.0
27/02:00am 10.7 10.9 10.5 99 0.1 CALM 0 0 0 0 1021.7 1020.7 0.0
27/01:30am 11.0 11.3 10.8 99 0.1 CALM 0 0 0 0 1022.2 1021.2 0.0
27/01:00am 11.9 11.1 11.7 99 0.1 N 7 9 4 5 1022.4 1021.4 0.0
27/12:30am 12.1 11.4 11.9 99 0.1 N 7 9 4 5 1022.4 1021.4 0.0
27/12:00am 12.7 12.2 12.5 99 0.1 N 7 9 4 5 1022.4 1021.4 0.0
 
Date/Time
WST
Temp
°C
App
Temp
°C
Dew
Point
Rel
Hum
%
Delta-T
°C
Wind Press
QNH
hPa
Press
MSL
hPa
Rain
since 9 am
mm
Dir
 
Spd
km/h
Gust
km/h
Spd
kts
Gust
kts
26/11:30pm 11.7 12.2 11.5 99 0.1 CALM 0 0 0 0 1022.8 1021.8 0.0
26/11:00pm 12.5 12.8 12.3 99 0.1 NNE 2 6 1 3 1023.1 1022.1 0.0
26/10:30pm 12.7 12.1 12.4 98 0.2 NNE 7 9 4 5 1023.5 1022.4 0.0
26/10:00pm 12.7 11.7 12.4 98 0.2 NE 9 11 5 6 1023.5 1022.4 0.0
26/09:30pm 13.0 12.1 12.7 98 0.2 NE 9 11 5 6 1023.6 1022.6 0.0
26/09:00pm 12.8 11.9 12.5 98 0.2 NE 9 11 5 6 1023.6 1022.6 0.0
26/08:30pm 13.1 11.9 12.8 98 0.2 ENE 11 13 6 7 1023.6 1022.6 0.0
26/08:00pm 13.4 13.6 13.1 98 0.2 NE 4 7 2 4 1023.5 1022.4 0.0
26/07:30pm 13.8 13.2 13.5 98 0.2 E 9 11 5 6 1023.6 1022.6 0.0
26/07:00pm 13.9 13.3 13.6 98 0.2 E 9 13 5 7 1023.5 1022.4 0.0
26/06:30pm 14.6 14.6 13.6 94 0.6 SE 6 7 3 4 1023.2 1022.2 0.0
26/06:00pm 15.3 15.9 13.1 87 1.2 S 2 7 1 4 1023.0 1022.0 0.0
26/05:30pm 16.3 16.0 13.4 83 1.7 SSW 7 9 4 5 1022.7 1021.7 0.0
26/05:00pm 17.2 16.8 12.9 76 2.4 SSW 7 9 4 5 1022.5 1021.5 0.0
26/04:30pm 18.1 18.8 12.3 69 3.3 CALM 0 0 0 0 1022.3 1021.3 0.0
26/04:00pm 18.8 18.6 13.0 69 3.3 WSW 6 7 3 4 1022.2 1021.2 0.0
26/03:30pm 18.5 19.3 12.5 68 3.4 CALM 0 7 0 4 1022.2 1021.2 0.0
26/03:00pm 18.8 19.6 12.5 67 3.6 CALM 0 6 0 3 1022.2 1021.2 0.0
26/02:30pm 17.6 17.1 12.7 73 2.8 WSW 7 11 4 6 1022.2 1021.2 0.0
26/02:00pm 17.1 16.6 12.6 75 2.5 SW 7 11 4 6 1022.4 1021.4 0.0
26/01:30pm 17.0 16.0 13.3 79 2.1 SW 11 15 6 8 1022.6 1021.6 0.0
26/01:00pm 16.9 16.5 14.0 83 1.7 WSW 9 11 5 6 1022.7 1021.7 0.0
26/12:30pm 16.9 16.9 14.2 84 1.6 W 7 13 4 7 1023.1 1022.1 0.0
26/12:00pm 16.5 16.9 13.6 83 1.7 NNW 4 9 2 5 1023.6 1022.6 0.0
26/11:30am 16.2 16.3 14.4 89 1.1 NNW 7 11 4 6 1023.9 1022.9 0.0
26/11:00am 15.4 15.7 14.6 95 0.5 WNW 6 9 3 5 1024.3 1023.3 0.0
26/10:30am 14.9 15.2 14.6 98 0.2 NW 6 9 3 5 1024.6 1023.6 0.0
26/10:00am 14.6 14.3 14.4 99 0.1 N 9 15 5 8 1024.8 1023.8 0.0
26/09:30am 14.2 13.8 14.0 99 0.1 NNE 9 11 5 6 1024.7 1023.7 0.0
26/09:00am 13.9 14.7 13.7 99 0.1 N 2 7 1 4 1024.6 1023.6 0.4
26/08:30am 13.6 13.0 13.4 99 0.1 N 9 13 5 7 1024.5 1023.5 0.4
26/08:00am 13.3 12.6 13.1 99 0.1 NW 9 11 5 6 1024.4 1023.4 0.4
26/07:30am 13.3 13.1 13.1 99 0.1 NNW 6 9 3 5 1024.1 1023.1 0.4
26/07:00am 13.1 12.3 12.9 99 0.1 NNW 9 13 5 7 1023.8 1022.8 0.4
26/06:30am 13.1 12.3 12.9 99 0.1 NNW 9 15 5 8 1023.7 1022.7 0.4
26/06:00am 13.1 12.3 12.9 99 0.1 N 9 13 5 7 1023.2 1022.2 0.4
26/05:30am 12.9 12.0 12.7 99 0.1 N 9 15 5 8 1022.9 1021.9 0.2
26/05:00am 12.6 12.2 12.4 99 0.1 N 6 9 3 5 1022.9 1021.9 0.2
26/04:30am 12.0 12.6 11.8 99 0.1 CALM 0 2 0 1 1022.7 1021.7 0.2
26/04:00am 11.6 10.7 11.4 99 0.1 NNE 7 11 4 6 1022.6 1021.6 0.2
26/03:30am 11.2 10.8 11.0 99 0.1 NNE 4 11 2 6 1022.6 1021.6 0.2
26/03:00am 10.3 9.0 10.1 99 0.1 ENE 7 9 4 5 1022.5 1021.5 0.2
26/02:30am 11.1 10.1 10.9 99 0.1 ENE 7 9 4 5 1022.5 1021.5 0.2
26/02:00am 11.4 11.8 11.2 99 0.1 CALM 0 0 0 0 1022.8 1021.8 0.2
26/01:30am 11.0 10.1 10.8 99 0.1 NE 6 7 3 4 1022.7 1021.7 0.2
26/01:00am 11.2 10.2 11.0 99 0.1 NE 7 9 4 5 1023.0 1022.0 0.2
26/12:30am 11.3 10.0 11.1 99 0.1 NE 9 11 5 6 1023.2 1022.2 0.0
26/12:00am 11.7 10.8 11.5 99 0.1 ENE 7 9 4 5 1023.2 1022.2 0.0
 
Date/Time
WST
Temp
°C
App
Temp
°C
Dew
Point
Rel
Hum
%
Delta-T
°C
Wind Press
QNH
hPa
Press
MSL
hPa
Rain
since 9 am
mm
Dir
 
Spd
km/h
Gust
km/h
Spd
kts
Gust
kts
25/11:30pm 12.2 11.5 12.0 99 0.1 E 7 7 4 4 1023.2 1022.2 0.0
25/11:00pm 12.9 12.0 12.7 99 0.1 NNE 9 13 5 7 1023.2 1022.2 0.0
25/10:30pm 12.9 11.7 12.7 99 0.1 NNE 11 13 6 7 1023.4 1022.3 0.0
25/10:00pm 12.6 11.6 12.4 99 0.1 NE 9 11 5 6 1023.4 1022.3 0.0
25/09:30pm 12.6 11.6 12.4 99 0.1 NNE 9 11 5 6 1023.5 1022.4 0.0
25/09:00pm 12.8 11.9 12.5 98 0.2 NE 9 11 5 6 1023.5 1022.4 0.0
25/08:30pm 13.0 12.1 12.7 98 0.2 NE 9 11 5 6 1023.5 1022.4 0.0
25/08:00pm 13.6 12.9 13.3 98 0.2 ENE 9 11 5 6 1023.4 1022.3 0.0
25/07:30pm 14.0 13.8 13.5 97 0.3 ENE 7 9 4 5 1023.5 1022.4 0.0
25/07:00pm 14.6 14.3 13.3 92 0.7 NE 7 11 4 6 1023.2 1022.2 0.0
25/06:30pm 15.3 16.4 13.5 89 1.0 CALM 0 0 0 0 1023.0 1022.0 0.0
25/06:00pm 15.6 14.9 13.3 86 1.3 NNE 9 13 5 7 1022.9 1021.9 0.0
25/05:30pm 15.9 15.4 12.8 82 1.8 NNE 7 11 4 6 1022.7 1021.7 0.0
25/05:00pm 16.0 15.3 13.3 84 1.5 NNE 9 13 5 7 1022.4 1021.4 0.0
25/04:30pm 15.9 14.9 13.4 85 1.4 NNE 11 15 6 8 1022.2 1021.2 0.0
25/04:00pm 16.2 15.1 13.1 82 1.8 N 11 15 6 8 1022.1 1021.1 0.0
25/03:30pm 16.1 15.3 13.0 82 1.8 N 9 15 5 8 1022.0 1021.0 0.0
25/03:00pm 16.4 15.4 13.3 82 1.8 N 11 15 6 8 1022.0 1021.0 0.0
25/02:30pm 16.3 15.5 12.8 80 2.0 N 9 15 5 8 1021.9 1020.9 0.0
25/02:00pm 16.6 15.6 13.5 82 1.8 N 11 17 6 9 1021.7 1020.7 0.0
25/01:30pm 16.6 16.2 13.1 80 2.0 NE 7 13 4 7 1021.9 1020.9 0.0
25/01:00pm 16.3 17.2 12.8 80 2.0 CALM 0 0 0 0 1022.0 1021.0 0.0
25/12:30pm 15.5 15.1 13.0 85 1.4 N 7 11 4 6 1022.4 1021.4 0.0
25/12:00pm 15.0 13.6 12.3 84 1.5 N 11 15 6 8 1022.8 1021.8 0.0
25/11:30am 15.8 14.2 12.7 82 1.7 NNE 13 19 7 10 1023.0 1022.0 0.0
25/11:00am 15.8 15.3 12.7 82 1.7 N 7 13 4 7 1023.5 1022.4 0.0
25/10:30am 15.2 14.8 12.9 86 1.3 NW 7 11 4 6 1023.8 1022.8 0.0
25/10:00am 14.4 13.2 12.8 90 0.9 NW 11 13 6 7 1024.1 1023.1 0.0
25/09:30am 14.7 13.8 12.6 87 1.2 NNW 9 13 5 7 1024.2 1023.2 0.0
25/09:00am 13.8 12.8 12.4 91 0.8 NNW 9 13 5 7 1023.9 1022.9 3.8
25/08:30am 13.8 13.2 13.5 98 0.2 N 9 11 5 6 1023.9 1022.9 3.8
25/08:00am 13.2 12.8 13.0 99 0.1 N 7 11 4 6 1023.6 1022.6 3.8
25/07:30am 11.1 11.4 10.9 99 0.1 CALM 0 7 0 4 1023.1 1022.1 3.8
25/07:00am 9.6 8.4 9.5 99 0.1 NNE 6 7 3 4 1022.9 1021.9 3.8
25/06:30am 9.2 7.7 9.1 99 0.1 N 7 9 4 5 1022.6 1021.6 3.8
25/06:00am 10.0 8.7 9.9 99 0.1 ESE 7 7 4 4 1022.4 1021.4 3.8
25/05:30am 10.1 8.8 9.9 99 0.1 E 7 9 4 5 1022.1 1021.1 3.8
25/05:00am 10.4 9.2 10.2 99 0.1 E 7 7 4 4 1021.9 1020.9 3.8
25/04:30am 10.6 10.0 10.4 99 0.1 ESE 4 7 2 4 1021.8 1020.8 3.8
25/04:00am 10.8 9.9 10.6 99 0.1 NE 6 9 3 5 1021.9 1020.9 3.8
25/03:30am 11.1 9.7 10.9 99 0.1 ENE 9 11 5 6 1021.8 1020.8 3.8
25/03:00am 11.5 10.8 11.3 99 0.1 NNE 6 7 3 4 1021.9 1020.9 3.8
25/02:30am 11.3 10.5 11.1 99 0.1 ENE 6 7 3 4 1022.0 1021.0 3.8
25/02:00am 11.9 11.1 11.7 99 0.1 ESE 7 7 4 4 1021.9 1020.9 3.8
25/01:30am 12.3 11.8 12.1 99 0.1 NNE 6 9 3 5 1022.0 1021.0 3.8
25/01:00am 12.4 11.7 12.1 98 0.2 NNE 7 11 4 6 1022.0 1021.0 3.8
25/12:30am 13.2 12.8 12.9 98 0.2 N 7 9 4 5 1021.9 1020.9 3.8
25/12:00am 13.6 12.8 13.0 96 0.3 N 9 13 5 7 1021.9 1020.9 3.8
 
Date/Time
WST
Temp
°C
App
Temp
°C
Dew
Point
Rel
Hum
%
Delta-T
°C
Wind Press
QNH
hPa
Press
MSL
hPa
Rain
since 9 am
mm
Dir
 
Spd
km/h
Gust
km/h
Spd
kts
Gust
kts
24/11:30pm 14.3 13.2 13.2 93 0.6 NNE 11 13 6 7 1022.1 1021.1 3.8
24/11:00pm 14.3 13.3 13.3 94 0.6 N 11 15 6 8 1022.2 1021.2 3.8
24/10:30pm 14.2 12.9 13.8 97 0.2 NNE 13 15 7 8 1022.4 1021.4 3.8
24/10:00pm 14.2 13.4 12.9 92 0.7 NE 9 13 5 7 1022.4 1021.4 3.8
24/09:30pm 14.8 13.7 13.0 89 1.0 NNE 11 17 6 9 1022.4 1021.4 3.8
24/09:00pm 15.2 14.1 13.2 88 1.1 NNE 11 15 6 8 1022.2 1021.2 3.8
24/08:30pm 15.4 14.7 13.2 87 1.3 N 9 11 5 6 1022.1 1021.1 3.8
24/08:00pm 15.3 15.1 13.7 90 0.9 NNE 7 11 4 6 1021.9 1020.9 3.8
24/07:30pm 15.5 14.3 14.0 91 0.9 NE 13 17 7 9 1021.8 1020.8 3.8
24/07:00pm 15.5 14.5 14.5 94 0.6 NNE 13 19 7 10 1021.6 1020.5 3.8
24/06:30pm 15.6 14.9 15.3 98 0.2 NNE 13 17 7 9 1021.5 1020.4 3.8
24/06:00pm 15.2 12.7 13.6 90 0.9 NE 19 24 10 13 1021.3 1020.2 3.2

Other Formats:

Comma delimited format used in spreadsheet applications
http://www.bom.gov.au/fwo/IDW60801/IDW60801.94449.axf

JavaScript Object Notation format (JSON) in row-major order
http://www.bom.gov.au/fwo/IDW60801/IDW60801.94449.json